createdAt,value
2018-05-01T13:37:03.276Z,24.10
2018-05-01T13:39:32.629Z,24.10
2018-05-01T13:42:01.998Z,24.00
2018-05-01T13:44:32.132Z,24.00
2018-05-01T13:47:01.877Z,23.90
2018-05-01T13:49:32.017Z,24.20
2018-05-01T13:52:01.548Z,24.30
2018-05-01T13:54:31.319Z,24.40
2018-05-01T13:57:01.452Z,24.50
2018-05-01T13:59:31.627Z,24.50
2018-05-01T14:02:01.764Z,24.60
2018-05-01T14:27:48.582Z,24.70
2018-05-01T14:30:19.800Z,24.60
2018-05-01T14:41:52.421Z,24.20
2018-05-01T15:06:13.660Z,21.60
2018-05-01T15:24:53.838Z,22.00
2018-05-01T15:27:21.184Z,22.00
2018-05-01T15:31:24.683Z,21.70
2018-05-01T15:33:51.192Z,21.70
2018-05-01T16:16:09.222Z,21.50
2018-05-01T16:30:32.303Z,21.40
2018-05-01T16:33:02.577Z,21.20
2018-05-01T16:35:30.043Z,21.30
2018-05-01T16:38:00.236Z,21.60
2018-05-01T16:40:28.196Z,21.70
2018-05-01T16:42:55.940Z,21.90
2018-05-01T16:45:23.069Z,22.00
2018-05-01T16:47:51.233Z,22.10
2018-05-01T16:52:58.949Z,22.10
2018-05-01T16:55:27.753Z,21.90
2018-05-01T16:57:56.532Z,21.70
2018-05-01T17:00:24.035Z,21.90
2018-05-01T17:02:51.574Z,22.00
2018-05-01T17:05:19.845Z,21.80
2018-05-01T17:07:47.561Z,21.70
2018-05-01T17:10:15.047Z,21.70
2018-05-01T17:12:42.576Z,21.60
2018-05-01T17:15:11.356Z,21.80
2018-05-01T17:17:40.016Z,22.00
2018-05-01T17:20:08.938Z,22.10
2018-05-01T17:22:36.056Z,22.00
2018-05-01T17:27:36.062Z,22.10
2018-05-01T17:30:04.866Z,22.10
2018-05-01T17:32:32.774Z,22.10
2018-05-01T17:36:04.633Z,22.20
2018-05-01T17:41:12.589Z,22.10
2018-05-01T17:43:41.214Z,22.00
2018-05-01T17:46:12.350Z,22.10
2018-05-01T17:48:40.883Z,22.10
2018-05-01T17:51:08.215Z,22.10
2018-05-01T17:53:36.576Z,22.10
2018-05-01T17:56:04.053Z,22.10
2018-05-01T17:58:32.588Z,22.10
2018-05-01T18:01:00.190Z,22.10
2018-05-01T18:03:32.595Z,22.00
2018-05-01T18:06:00.199Z,22.00
2018-05-01T18:08:28.596Z,21.40
2018-05-01T18:13:31.581Z,21.00
2018-05-01T18:15:59.250Z,20.90
2018-05-01T18:18:27.211Z,21.00
2018-05-01T18:20:55.073Z,20.90
2018-05-01T18:23:23.668Z,20.90
2018-05-01T18:25:54.223Z,20.70
2018-05-01T18:28:21.857Z,20.80
2018-05-01T18:30:49.415Z,20.80
2018-05-01T18:33:17.253Z,20.80
2018-05-01T18:35:45.007Z,20.80
2018-05-01T18:38:12.225Z,20.70
2018-05-01T18:40:40.628Z,20.60
2018-05-01T18:43:08.262Z,20.60
2018-05-01T18:45:36.230Z,20.70
2018-05-01T18:48:04.199Z,20.70
2018-05-01T18:50:40.391Z,20.50
2018-05-01T18:55:49.193Z,20.60
2018-05-01T19:00:28.827Z,20.60
2018-05-01T19:02:57.240Z,20.70
2018-05-01T19:05:25.833Z,20.40
2018-05-01T19:07:54.994Z,20.50
2018-05-01T19:10:23.007Z,20.50
2018-05-01T19:12:51.768Z,20.40
2018-05-01T19:15:22.673Z,20.50
2018-05-01T19:17:50.330Z,20.50
2018-05-01T19:20:18.259Z,20.30
2018-05-01T19:22:46.233Z,20.40
2018-05-01T19:25:15.052Z,20.30
2018-05-01T19:27:43.634Z,20.30
2018-05-01T19:30:11.374Z,20.40
2018-05-01T19:32:43.247Z,20.40
2018-05-01T19:35:11.832Z,20.40
2018-05-01T19:37:39.680Z,20.30
2018-05-01T19:40:09.065Z,20.30
2018-05-01T19:42:37.047Z,20.40
2018-05-01T19:45:08.326Z,20.40
2018-05-01T19:47:37.031Z,20.30
2018-05-01T19:51:05.306Z,20.30
2018-05-01T19:53:33.303Z,20.30
2018-05-01T19:58:30.304Z,20.30
2018-05-01T20:00:59.221Z,20.40
2018-05-01T20:03:27.025Z,20.30
2018-05-01T20:05:56.416Z,20.20
2018-05-01T20:08:25.055Z,20.00
2018-05-01T20:10:53.019Z,19.90
2018-05-01T20:13:20.220Z,20.10
2018-05-01T20:15:47.977Z,20.10
2018-05-01T20:18:16.780Z,20.00
2018-05-01T20:20:44.480Z,20.00
2018-05-01T20:23:12.200Z,19.90
2018-05-01T20:25:39.950Z,19.90
2018-05-01T20:28:07.156Z,19.70
2018-05-01T20:30:34.792Z,19.80
2018-05-01T20:33:03.718Z,20.00
2018-05-01T20:35:32.060Z,19.90
2018-05-01T20:37:59.640Z,19.90
2018-05-01T20:40:27.212Z,20.10
2018-05-01T20:42:55.609Z,19.70
2018-05-01T20:45:23.067Z,19.70
2018-05-01T20:47:50.591Z,19.80
2018-05-01T20:50:18.975Z,19.30
2018-05-01T20:52:47.546Z,19.60
2018-05-01T20:55:15.234Z,19.60
2018-05-01T20:57:43.189Z,19.70
2018-05-01T21:00:10.949Z,19.70
2018-05-01T21:02:38.070Z,19.80
2018-05-01T21:05:05.563Z,19.70
2018-05-01T21:07:33.246Z,19.50
2018-05-01T21:10:00.989Z,19.40
2018-05-01T21:12:28.206Z,19.50
2018-05-01T21:14:55.956Z,19.50
2018-05-01T21:17:23.598Z,19.90
2018-05-01T21:22:18.413Z,21.10
2018-05-01T21:27:00.404Z,21.30
2018-05-01T21:29:27.287Z,21.30
2018-05-01T21:31:54.288Z,21.40
